• Join FlightAware (Why Join?)
  • Login
  • US Flag GB Flag 
18:13 EDT


 

Airport Tracker/Info


-or-


 

Live Flight TrackerFlight Track Log ✈ EJM685 ✈ 23-Jun-2013 ✈ KMSO - KHTO

Flight Track Log - Related Links

Times and Time Zones

All times are in EDT time to prevent confusion due to time zone crossing. See the EJM685 flight status page for this flight to view local times or setup timezone preferences in your user account.

Time Position Orientation Groundspeed Altitude Reporting Facility
EDT Latitude Longitude Course Direction KTS MPH feet Rate Location/Type
12:37 46.9608 -114.1722 72° East 214 246 7,100  Level Salt Lake Center
12:38 47.0264 -114.2169 335° Northwest 285 328 10,800 2,880 Climbing Salt Lake Center
12:39 47.0781 -114.1081 55° Northeast 353 406 13,100 2,640 Climbing Salt Lake Center
12:40 47.1022 -113.9450 78° East 379 436 16,300 2,940 Climbing Salt Lake Center
12:41 47.1258 -113.7803 78° East 408 470 19,200 2,760 Climbing Salt Lake Center
12:42 47.1330 -112.9964 72° East  Level FlightAware Approximate
12:42 47.1536 -113.5997 77° East 434 499 22,100  Level Salt Lake Center
12:43 47.1803 -113.4161 78° East 461 531 24,400 2,220 Climbing Salt Lake Center
12:44 47.2017 -113.2222 81° East 485 558 26,800 2,100 Climbing Salt Lake Center
12:45 47.2028 -113.0158 89° East 505 581 28,800 1,920 Climbing Salt Lake Center
12:46 47.2044 -112.7761 89° East 525 604 30,800 2,100 Climbing Salt Lake Center
12:47 47.2064 -112.5586 89° East 533 613 33,200 2,220 Climbing Salt Lake Center
12:48 47.2064 -112.3442 90° East 531 611 35,400 2,040 Climbing Salt Lake Center
12:49 47.2072 -112.1283 90° East 530 610 37,500 1,980 Climbing Salt Lake Center
12:50 47.2061 -111.9164 90° East 526 605 39,600 2,220 Climbing Salt Lake Center
12:51 47.2058 -111.6758 90° East 499 574 42,200 1,620 Climbing Salt Lake Center
12:52 47.2042 -111.4811 91° East 486 559 43,000 360 Climbing Salt Lake Center
12:53 47.2033 -111.2806 90° East 495 570 43,000  Level Salt Lake Center
12:54 47.2011 -111.0800 91° East 497 572 43,000  Level Salt Lake Center
12:55 47.2000 -110.8817 90° East 494 568 43,000  Level Salt Lake Center
12:56 47.1967 -110.6408 91° East 494 568 43,000  Level Salt Lake Center
12:57 47.1931 -110.4406 91° East 495 570 43,000  Level Salt Lake Center
12:58 47.1903 -110.2397 91° East 494 568 43,000  Level Salt Lake Center
12:59 47.1861 -110.0375 92° East 496 571 43,000  Level Salt Lake Center
13:00 47.1817 -109.8364 92° East 495 570 43,100 540 Climbing Salt Lake Center
13:01 47.1772 -109.6347 92° East 496 571 44,200 900 Climbing Salt Lake Center
13:02 47.1722 -109.3964 92° East 490 564 45,000 360 Climbing Salt Lake Center
13:03 47.1675 -109.1931 92° East 496 571 45,000  Level Salt Lake Center
13:05 47.1631 -109.0094 92° East 503 579 45,000  Level Salt Lake Center
13:06 47.1539 -108.7667 93° East 500 575 45,000  Level Salt Lake Center
13:07 47.1475 -108.5661 93° East 495 570 45,000  Level Salt Lake Center
13:08 47.1411 -108.3628 93° East 497 572 45,000  Level Salt Lake Center
13:09 47.1375 -108.1414 91° East 496 571 45,000  Level Salt Lake Center
13:10 47.1306 -107.9400 93° East 496 571 45,000  Level Salt Lake Center
13:11 47.1231 -107.7578 93° East 498 573 45,000  Level Salt Lake Center
13:12 47.1142 -107.5131 93° East 501 577 45,000  Level Salt Lake Center
13:13 47.1061 -107.3117 93° East 499 574 45,000  Level Salt Lake Center
13:14 47.0961 -107.1086 94° East 499 574 45,000 -60 Level Salt Lake Center
13:15 47.0867 -106.9067 94° East 499 574 44,900  Descending Salt Lake Center
13:16 47.0789 -106.7033 93° East 500 575 45,000  Climbing Salt Lake Center
13:17 47.0681 -106.4997 94° East 502 578 45,000  Level Salt Lake Center
13:18 47.0575 -106.3003 94° East 496 571 45,000  Level Salt Lake Center
13:19 47.0458 -106.0583 94° East 498 573 45,000  Level Salt Lake Center
13:20 47.0331 -105.8567 95° East 499 574 45,000  Level Salt Lake Center
13:21 47.0203 -105.6561 95° East 498 573 45,000  Level Salt Lake Center
13:22 47.0100 -105.4564 94° East 496 571 45,000  Level Salt Lake Center
13:23 46.9978 -105.2558 95° East 496 571 45,000  Level Salt Lake Center
13:24 46.9861 -105.0556 95° East 497 572 45,000  Level Salt Lake Center
13:25 46.9725 -104.8175 95° East 495 570 45,000  Level Salt Lake Center
13:26 46.9586 -104.6178 96° East 495 570 45,000  Level Salt Lake Center
13:27 46.9461 -104.4186 95° East 495 570 45,000  Level Salt Lake Center
13:28 46.9314 -104.2181 96° East 496 571 45,000  Level Salt Lake Center
13:29 46.9183 -104.0211 95° East 496 571 45,000  Level Salt Lake Center
13:30 46.9014 -103.7819 96° East 495 570 45,000  Level Salt Lake Center
13:31 46.8869 -103.5881 96° East 492 566 45,000  Level Salt Lake Center
13:32 46.8719 -103.3922 96° East 490 564 45,000  Level Salt Lake Center
13:33 46.8578 -103.1972 96° East 487 560 45,000  Level Salt Lake Center
13:35 46.8383 -102.9197 96° East 494 568 45,000  Level Minneapolis Center
13:36 46.8219 -102.7233 97° East 493 567 45,000  Level Minneapolis Center
13:37 46.8014 -102.4897 97° East 488 562 45,000  Level Minneapolis Center
13:38 46.7856 -102.2933 97° East 490 564 45,000  Level Minneapolis Center
13:39 46.7686 -102.0939 97° East 494 568 45,000  Level Minneapolis Center
13:40 46.7508 -101.9017 98° East 486 559 45,000  Level Minneapolis Center
13:41 46.7328 -101.7061 98° East 486 559 45,000  Level Minneapolis Center
13:42 46.7103 -101.4822 98° East 485 558 45,000  Level Minneapolis Center
13:43 46.6914 -101.2867 98° East 486 559 45,000  Level Minneapolis Center
13:44 46.6722 -101.0928 98° East 485 558 45,000  Level Minneapolis Center
13:45 46.6522 -100.8983 98° East 485 558 45,000  Level Minneapolis Center
13:46 46.6331 -100.7036 98° East 485 558 45,000 240 Level Minneapolis Center
13:47 46.6092 -100.4728 98° East 484 557 45,500 660 Climbing Minneapolis Center
13:48 46.5900 -100.2800 98° East 483 556 46,400 660 Climbing Minneapolis Center
13:49 46.5706 -100.0872 98° East 482 555 46,900 240 Climbing Minneapolis Center
13:50 46.5508 -99.8964 98° East 480 552 47,000  Climbing Minneapolis Center
13:51 46.5300 -99.7069 99° East 476 548 47,000  Level Minneapolis Center
13:53 46.5036 -99.4753 99° East 481 554 47,000  Level Minneapolis Center
13:54 46.4747 -99.2158 99° East 483 556 47,000  Level Minneapolis Center
13:55 46.4528 -99.0258 99° East 482 555 47,000  Level Minneapolis Center
13:56 46.4256 -98.7969 100° East 483 556 47,000  Level Minneapolis Center
13:57 46.4025 -98.6089 100° East 480 552 47,000  Level Minneapolis Center
13:58 46.3808 -98.4194 99° East 480 552 47,000  Level Minneapolis Center
13:59 46.3572 -98.2283 100° East 483 556 47,000  Level Minneapolis Center
14:00 46.3275 -97.9978 100° East 487 560 47,000  Level Minneapolis Center
14:01 46.3039 -97.8069 100° East 486 559 47,000  Level Minneapolis Center
14:02 46.2789 -97.6164 101° East 485 558 47,000  Level Minneapolis Center
14:03 46.2536 -97.4242 101° East 489 563 47,000  Level Minneapolis Center
14:04 46.2236 -97.1950 101° East 487 560 47,000  Level Minneapolis Center
14:05 46.1978 -97.0072 101° East 480 552 47,000  Level Minneapolis Center
14:06 46.1722 -96.8208 101° East 477 549 47,000  Level Minneapolis Center
14:07 46.1433 -96.6081 101° East 470 541 47,000  Level Minneapolis Center
14:09 46.1172 -96.4219 101° East 473 544 47,000  Level Minneapolis Center
14:10 46.0892 -96.2328 102° East 481 554 47,000  Level Minneapolis Center
14:11 46.0633 -96.0433 101° East 482 555 47,000  Level Minneapolis Center
14:12 46.0350 -95.8511 102° East 488 562 47,000  Level Minneapolis Center
14:13 46.0083 -95.6619 101° East 483 556 47,000  Level Minneapolis Center
14:14 45.9806 -95.4725 102° East 484 557 47,000  Level Minneapolis Center
14:15 45.9461 -95.2450 102° East 485 558 47,000  Level Minneapolis Center
14:16 45.9169 -95.0575 103° East 482 555 47,000  Level Minneapolis Center
14:17 45.8869 -94.8622 102° East 482 555 47,000  Level Minneapolis Center
14:18 45.8575 -94.6725 102° East 487 560 47,000  Level Minneapolis Center
14:19 45.8272 -94.4853 103° East 485 558 47,000  Level Minneapolis Center
14:20 45.7975 -94.2992 103° East 483 556 47,000  Level Minneapolis Center
14:21 45.7678 -94.1097 103° East 487 560 47,000  Level Minneapolis Center
14:22 45.7311 -93.8883 103° East 479 551 47,000  Level Minneapolis Center
14:23 45.7011 -93.7056 103° East 473 544 47,000  Level Minneapolis Center
14:24 45.6703 -93.5228 104° East 473 544 47,000  Level Minneapolis Center
14:25 45.6397 -93.3397 103° East 473 544 47,000  Level Minneapolis Center
14:26 45.6083 -93.1569 104° East 474 545 47,000  Level Minneapolis Center
14:27 45.5778 -92.9769 104° East 470 541 47,000  Level Minneapolis Center
14:28 45.5406 -92.7650 104° East 465 535 47,000  Level Minneapolis Center
14:29 45.5092 -92.5869 104° East 463 533 47,000  Level Minneapolis Center
14:30 45.4778 -92.4083 104° East 465 535 47,000  Level Minneapolis Center
14:31 45.4381 -92.1953 105° East 464 534 47,000  Level Minneapolis Center
14:33 45.4061 -92.0153 104° East 468 539 47,000  Level Minneapolis Center
14:34 45.3725 -91.8375 105° East 467 537 47,000  Level Minneapolis Center
14:35 45.3308 -91.6192 105° East 474 545 47,000  Level Minneapolis Center
14:36 45.2892 -91.3989 105° East 480 552 47,000  Level Minneapolis Center
14:37 45.2531 -91.2192 106° East 483 556 47,000  Level Minneapolis Center
14:38 45.2111 -90.9964 105° East 487 560 47,000  Level Minneapolis Center
14:39 45.1694 -90.7769 105° East 485 558 47,000  Level Minneapolis Center
14:40 45.1264 -90.5583 106° East 483 556 47,000  Level Minneapolis Center
14:41 45.0917 -90.3786 105° East 477 549 47,000  Level Minneapolis Center
14:42 45.0544 -90.1978 106° East 479 551 47,000  Level Minneapolis Center
14:43 45.0172 -90.0147 106° East 485 558 47,000  Level Minneapolis Center
14:45 44.9797 -89.8283 106° East 492 566 47,000  Level Minneapolis Center
14:46 44.9369 -89.6206 106° East 486 559 47,000  Level Minneapolis Center
14:47 44.8983 -89.4347 106° East 493 567 47,000  Level Minneapolis Center
14:48 44.8581 -89.2472 107° East 497 572 47,000  Level Minneapolis Center
14:49 44.8197 -89.0606 106° East 496 571 47,000  Level Minneapolis Center
14:50 44.7742 -88.8475 107° East 488 562 47,000  Level Minneapolis Center
14:51 44.7369 -88.6733 107° East 468 539 47,000  Level Minneapolis Center
14:52 44.6997 -88.5061 107° East 451 519 47,000  Level Minneapolis Center
14:53 44.6633 -88.3375 107° East 450 518 47,000  Level Minneapolis Center
14:54 44.6267 -88.1656 107° East 455 524 47,000  Level Minneapolis Center
14:55 44.5886 -87.9967 108° East 453 521 47,000  Level Minneapolis Center
14:56 44.5444 -87.8072 108° East 458 527 47,000  Level Minneapolis Center
14:57 44.5056 -87.6350 108° East 463 533 47,000  Level Minneapolis Center
14:58 44.4664 -87.4617 108° East 468 539 47,000  Level Minneapolis Center
14:59 44.4228 -87.2719 108° East 472 543 47,000  Level Minneapolis Center
15:00 44.3767 -87.0789 108° East 473 544 47,000  Level Minneapolis Center
15:01 44.3358 -86.9042 108° East 475 547 47,000  Level Minneapolis Center
15:02 44.2944 -86.7292 108° East 478 550 47,000  Level Minneapolis Center
15:03 44.2531 -86.5542 108° East 480 552 47,000  Level Minneapolis Center
15:04 44.2111 -86.3811 109° East 476 548 47,000  Level Minneapolis Center
15:05 44.1706 -86.2094 108° East 473 544 47,000  Level Minneapolis Center
15:06 44.1203 -86.0039 109° East 471 542 47,000  Level Minneapolis Center
15:07 44.0864 -85.8678 109° East 470 541 47,000  Level Minneapolis Center
15:08 44.0317 -85.6444 109° East 470 541 47,000  Level Minneapolis Center
15:09 43.9892 -85.4728 109° East 470 541 47,000  Level Minneapolis Center
15:10 43.9542 -85.3344 109° East 472 543 47,000  Level Minneapolis Center
15:11 43.9019 -85.1275 109° East 473 544 47,000  Level Minneapolis Center
15:13 43.8589 -84.9547 109° East 473 544 47,000  Level Minneapolis Center
15:14 43.8044 -84.7467 110° East 477 549 47,000  Level Minneapolis Center
15:15 43.7431 -84.5072 109° East 473 544 47,000  Level Minneapolis Center
15:16 43.6972 -84.3361 110° East 474 545 47,000  Level Minneapolis Center
15:17 43.6444 -84.1297 109° East 476 548 47,000  Level Minneapolis Center
15:18 43.5986 -83.9606 110° East 473 544 47,000  Level Minneapolis Center
15:19 43.5533 -83.7886 110° East 476 548 47,000  Level Minneapolis Center
15:20 43.5056 -83.6169 111° Southeast 480 552 47,000  Level Minneapolis Center
15:21 43.4500 -83.4667 117° Southeast 470 541 47,000  Level Toronto Center
15:22 43.4047 -83.2519 106° East 468 539 47,000  Level Cleveland Center
15:23 43.3667 -83.1167 111° Southeast 470 541 47,000  Level Toronto Center
15:24 43.3167 -82.9500 112° Southeast 470 541 47,000  Level Toronto Center
15:25 43.2667 -82.8000 115° Southeast 480 552 47,000  Level Toronto Center
15:26 43.2333 -82.6333 105° East 480 552 47,000  Level Toronto Center
15:27 43.1833 -82.4667 112° Southeast 470 541 47,000  Level Toronto Center
15:28 43.1167 -82.2833 116° Southeast 470 541 47,000  Level Toronto Center
15:29 43.0667 -82.1167 112° Southeast 470 541 47,000  Level Toronto Center
15:30 43.0167 -81.9667 114° Southeast 470 541 47,000  Level Toronto Center
15:31 42.9833 -81.8000 105° East 470 541 47,000  Level Toronto Center
15:32 42.9167 -81.6167 116° Southeast 470 541 47,000  Level Toronto Center
15:33 42.8667 -81.4500 112° Southeast 480 552 47,000  Level Toronto Center
15:34 42.8167 -81.3000 114° Southeast 470 541 47,000  Level Toronto Center
15:35 42.7667 -81.1333 112° Southeast 470 541 47,000  Level Toronto Center
15:36 42.7167 -80.9667 112° Southeast 470 541 47,000  Level Toronto Center
15:37 42.7000 -80.7833 97° East 470 541 47,000  Level Toronto Center
15:38 42.7000 -80.6167 90° East 470 541 47,000  Level Toronto Center
15:39 42.6833 -80.4333 97° East 470 541 47,000  Level Toronto Center
15:40 42.6833 -80.2500 90° East 480 552 47,000  Level Toronto Center
15:41 42.6833 -80.0667 90° East 470 541 47,000  Level Toronto Center
15:42 42.6667 -79.9000 98° East 470 541 47,000  Level Toronto Center
15:43 42.6667 -79.7000 90° East 470 541 47,000  Level Toronto Center
15:44 42.6500 -79.5500 99° East 470 541 47,000  Level Toronto Center
15:45 42.6500 -79.3667 90° East 470 541 47,000  Level Toronto Center
15:46 42.6333 -79.1833 97° East 470 541 47,000  Level Toronto Center
15:47 42.6333 -79.0167 90° East 470 541 47,000  Level Toronto Center
15:48 42.6333 -78.8167 90° East 470 541 47,000  Level Toronto Center
15:49 42.6167 -78.6667 99° East 470 541 47,000  Level Toronto Center
15:50 42.6000 -78.4833 97° East 470 541 47,000  Level Toronto Center
15:51 42.5833 -78.3000 97° East 470 541 47,000  Level Toronto Center
15:52 42.5500 -78.1167 104° East 470 541 47,000  Level Toronto Center
15:53 42.5092 -77.9439 108° East 464 534 47,000  Level Cleveland Center
15:54 42.4781 -77.7706 104° East 464 534 47,000  Level Cleveland Center
15:55 42.4508 -77.6031 102° East 464 534 47,000  Level Cleveland Center
15:56 42.4278 -77.4381 101° East 478 550 47,000  Level Cleveland Center
15:57 42.4458 -77.2656 82° East 471 542 47,000  Level Cleveland Center
15:59 42.4833 -76.9117 82° East 480 552 47,000  Level Boston Center
16:00 42.5006 -76.7353 82° East 475 547 47,000  Level Boston Center
16:01 42.5208 -76.5253 82° East 470 541 47,000  Level Boston Center
16:02 42.5225 -76.3564 89° East 457 526 47,000  Level Boston Center
16:03 42.5111 -76.2033 96° East 457 526 47,000 -60 Level Boston Center
16:04 42.5000 -76.0281 95° East 457 526 46,900  Descending Boston Center
16:05 42.4869 -75.8472 96° East 469 540 47,000  Climbing Boston Center
16:06 42.4753 -75.6747 95° East 469 540 47,000 -360 Level Boston Center
16:07 42.4594 -75.4936 97° East 469 540 46,300 -1,500 Descending Boston Center
16:08 42.4472 -75.3158 95° East 469 540 44,000 -3,000 Descending Boston Center
16:09 42.4333 -75.1239 96° East 474 545 40,400 -3,600 Descending Boston Center
16:10 42.4206 -74.9461 96° East 469 540 36,900 -3,540 Descending Boston Center
16:11 42.4058 -74.7628 96° East 469 540 33,400 -3,600 Descending Boston Center
16:12 42.3928 -74.5711 95° East 489 563 29,800 -2,220 Descending Boston Center
16:13 42.3814 -74.4047 95° East 500 575 29,000 -600 Descending Boston Center
16:14 42.3636 -74.2103 97° East 510 587 28,700 -720 Descending Boston Center
16:15 42.3497 -74.0300 96° East 497 572 27,600 -1,320 Descending Boston Center
16:16 42.3333 -73.8528 97° East 486 559 26,100 -2,100 Descending Boston Center
16:17 42.3208 -73.6586 95° East 481 554 23,400 -2,640 Descending Boston Center
16:18 42.3039 -73.4928 98° East 467 537 20,900 -1,860 Descending Boston Center
16:19 42.2925 -73.3692 97° East 442 509 19,700 -960 Descending Boston Center
16:20 42.2731 -73.1808 98° East 423 487 19,000 -360 Descending Boston Center
16:21 42.2153 -73.0625 123° Southeast 412 474 19,000  Level Boston Center
16:22 42.1264 -72.9411 135° Southeast 412 474 19,000  Level Boston Center
16:23 42.0433 -72.8286 135° Southeast 417 480 19,000 -240 Level Boston Center
16:24 41.9603 -72.7164 135° Southeast 422 486 18,600 -480 Descending Boston Center
16:25 41.8939 -72.6047 129° Southeast 422 486 18,100 -780 Descending Boston Center
16:26 41.8211 -72.4764 127° Southeast 408 470 17,100 -1,080 Descending Boston Center
16:27 41.7606 -72.3678 127° Southeast 403 464 16,000 -2,340 Descending Boston Center
16:28 41.6917 -72.2400 126° Southeast 397 457 12,500 -2,520 Descending Boston Center
16:29 41.6289 -72.1319 128° Southeast 381 438 11,000 -900 Descending Boston Center
16:30 41.5619 -72.0433 135° Southeast 348 400 10,800 -1,020 Descending Boston Center
16:32 41.4619 -72.0467 181° South 279 321 8,800 -1,800 Descending Boston Center
16:33 41.3892 -72.0858 202° Southwest 273 314 6,800 -840 Descending Boston Center
16:35 41.2333 -72.1500 197° South 261 300 6,100 -240 Descending New York TRACON
16:36 41.1667 -72.2000 209° Southwest 261 300 6,100 -120 Level New York TRACON
16:37 41.1000 -72.2333 201° Southwest 263 303 5,900 -540 Descending New York TRACON
16:38 41.0333 -72.2500 191° South 234 269 5,100 -840 Descending New York TRACON
16:39 40.9833 -72.2500 180° South 193 222 4,300 -1,140 Descending New York TRACON
16:40 40.9333 -72.2333 166° South 162 186 2,900 -1,320 Descending New York TRACON
16:41 40.9333 -72.1667 90° East 187 215 1,700 -120 Descending New York TRACON
16:44 40.9667 -72.2667 294° West 165 190 2,500 300 Climbing New York TRACON
16:45 40.9333 -72.2667 180° South 189 217 3,000 300 Climbing New York TRACON
16:46 40.8833 -72.2333 153° Southeast 195 224 3,100  Climbing New York TRACON
16:47 40.8833 -72.1500 90° East 215 247 3,000 -60 Descending New York TRACON
16:48 40.9000 -72.0833 72° East 192 221 3,000  Level New York TRACON
16:49 40.9000 -72.0167 90° East 183 211 3,000  Level New York TRACON